Time;durP1;ratioP1;P1;durP2;ratioP2;P2;SDS_P1;SDS_P2;PMS_P1;PMS_P2;Temp;Humidity;BMP_temperature;BMP_pressure;BME280_temperature;BME280_humidity;BME280_pressure;Samples;Min_cycle;Max_cycle;Signal;HPM_P1;HPM_P2
2023/09/11 00:00:57;;;;;;;24.52;13.32;;;24.20;83.20;;;;;;5030958;28;20044;-68
2023/09/11 00:04:01;;;;;;;19.85;14.63;;;24.20;83.30;;;;;;5031022;28;20389;-68
2023/09/11 00:07:05;;;;;;;22.88;14.68;;;23.80;84.20;;;;;;5030816;28;20041;-68
2023/09/11 00:10:09;;;;;;;24.02;14.68;;;23.80;84.70;;;;;;5031178;28;20045;-68
2023/09/11 00:13:14;;;;;;;29.63;14.05;;;23.70;84.50;;;;;;5031164;28;20048;-68
2023/09/11 00:16:17;;;;;;;25.70;14.43;;;23.80;85.20;;;;;;5031046;28;20056;-68
2023/09/11 00:19:21;;;;;;;24.48;14.15;;;23.70;84.90;;;;;;5030216;28;20087;-68
2023/09/11 00:22:26;;;;;;;23.80;13.48;;;23.70;85.20;;;;;;5031145;28;20044;-68
2023/09/11 00:25:30;;;;;;;25.15;14.70;;;23.80;85.10;;;;;;5030920;28;20044;-68
2023/09/11 00:28:34;;;;;;;33.38;14.00;;;23.70;85.00;;;;;;5030786;28;20063;-69
2023/09/11 00:31:38;;;;;;;26.83;13.90;;;23.60;85.00;;;;;;5030544;28;20045;-68
2023/09/11 00:34:42;;;;;;;25.23;14.27;;;23.60;85.70;;;;;;5030506;28;20048;-68
2023/09/11 00:37:46;;;;;;;21.23;13.23;;;23.50;85.10;;;;;;5030631;28;20045;-67
2023/09/11 00:40:50;;;;;;;27.30;13.98;;;24.10;86.40;;;;;;5030703;28;20053;-68
2023/09/11 00:43:54;;;;;;;23.10;14.38;;;23.40;85.90;;;;;;5029802;28;20049;-68
2023/09/11 00:46:58;;;;;;;26.02;13.40;;;23.40;85.70;;;;;;5030969;28;20500;-68
2023/09/11 00:50:02;;;;;;;21.73;13.43;;;23.40;85.60;;;;;;5030823;28;20044;-68
2023/09/11 00:53:07;;;;;;;24.17;13.68;;;23.30;85.20;;;;;;5030609;28;20060;-68
2023/09/11 00:56:11;;;;;;;18.10;12.48;;;23.20;85.50;;;;;;5030612;28;20056;-68
2023/09/11 00:59:17;;;;;;;22.73;12.80;;;23.30;86.10;;;;;;5030318;28;20064;-67
2023/09/11 01:02:21;;;;;;;17.70;12.90;;;23.50;85.80;;;;;;5029489;28;20056;-68
2023/09/11 01:05:28;;;;;;;15.57;11.07;;;23.60;84.90;;;;;;5029644;28;20056;-68
2023/09/11 01:08:32;;;;;;;18.17;12.63;;;23.60;82.40;;;;;;5029662;28;20061;-68
2023/09/11 01:11:36;;;;;;;15.95;11.27;;;23.50;83.30;;;;;;5030320;28;20044;-68
2023/09/11 01:14:40;;;;;;;23.20;12.65;;;23.40;83.60;;;;;;5029554;28;20129;-68
2023/09/11 01:18:00;;;;;;;19.17;11.93;;;23.50;84.20;;;;;;5030543;28;20048;-68
2023/09/11 01:21:45;;;;;;;16.52;12.38;;;23.40;83.80;;;;;;5030614;28;20089;-68
2023/09/11 01:25:09;;;;;;;23.80;11.95;;;23.50;83.00;;;;;;5030402;28;20400;-68
2023/09/11 01:28:20;;;;;;;23.80;11.40;;;23.50;83.30;;;;;;5019965;28;20048;-68
2023/09/11 01:31:26;;;;;;;22.83;12.40;;;23.50;83.70;;;;;;5034242;28;20044;-68
2023/09/11 01:34:31;;;;;;;19.48;12.43;;;23.30;83.80;;;;;;5033688;28;20057;-67
2023/09/11 01:37:35;;;;;;;15.45;11.57;;;23.20;84.50;;;;;;5033141;28;20045;-69
2023/09/11 01:40:42;;;;;;;17.67;11.98;;;23.10;83.90;;;;;;5033698;28;20049;-68
2023/09/11 01:43:46;;;;;;;18.40;11.38;;;22.20;83.90;;;;;;5032826;28;20048;-69
2023/09/11 01:46:51;;;;;;;17.27;11.50;;;23.20;83.90;;;;;;5034039;28;20072;-69
2023/09/11 01:49:57;;;;;;;15.43;11.55;;;23.20;84.30;;;;;;5032868;28;20060;-69
2023/09/11 01:53:01;;;;;;;17.55;12.43;;;23.20;84.00;;;;;;5032909;28;20057;-69
2023/09/11 01:56:06;;;;;;;17.52;11.35;;;23.30;83.20;;;;;;5033474;28;20044;-69
2023/09/11 01:59:13;;;;;;;19.92;12.40;;;23.20;83.90;;;;;;5032367;28;20037;-68
2023/09/11 02:02:17;;;;;;;17.58;12.15;;;23.10;84.20;;;;;;5032560;28;20056;-69
2023/09/11 02:05:22;;;;;;;16.02;11.55;;;23.00;84.10;;;;;;5033241;28;20052;-69
2023/09/11 02:08:26;;;;;;;16.00;11.73;;;23.00;84.80;;;;;;5032321;28;20048;-68
2023/09/11 02:11:30;;;;;;;23.23;13.57;;;23.00;84.00;;;;;;5033139;28;20048;-68
2023/09/11 02:14:34;;;;;;;24.92;12.77;;;23.00;84.80;;;;;;5055182;28;20049;-68
2023/09/11 02:17:38;;;;;;;16.30;11.95;;;23.00;84.70;;;;;;5033110;28;20064;-69
2023/09/11 02:20:47;;;;;;;18.77;11.93;;;22.90;84.90;;;;;;5033126;28;20036;-69
2023/09/11 02:23:55;;;;;;;16.05;13.05;;;22.70;85.00;;;;;;5032151;28;20053;-68
2023/09/11 02:26:58;;;;;;;19.45;12.68;;;22.60;85.60;;;;;;5032117;28;20056;-67
2023/09/11 02:30:05;;;;;;;17.98;13.13;;;22.70;85.00;;;;;;5055257;28;20405;-68
2023/09/11 02:33:09;;;;;;;24.50;12.10;;;22.70;84.90;;;;;;5032470;28;20465;-68
2023/09/11 02:36:14;;;;;;;21.77;13.30;;;22.80;85.10;;;;;;5032996;28;20401;-68
2023/09/11 02:39:17;;;;;;;24.73;12.07;;;22.80;84.70;;;;;;5031947;28;20582;-68
2023/09/11 02:42:21;;;;;;;19.30;12.77;;;22.70;84.60;;;;;;5030687;28;20504;-69
2023/09/11 02:45:26;;;;;;;21.30;12.75;;;22.70;85.00;;;;;;5031880;28;20068;-68
2023/09/11 02:48:31;;;;;;;22.50;12.75;;;22.50;85.80;;;;;;5032397;28;20052;-68
2023/09/11 02:51:35;;;;;;;16.35;12.18;;;24.80;86.50;;;;;;5032628;28;20409;-68
2023/09/11 02:54:39;;;;;;;16.45;12.50;;;22.60;85.30;;;;;;5032210;28;20068;-69
2023/09/11 02:57:43;;;;;;;16.42;12.45;;;22.50;85.90;;;;;;5032256;28;20504;-69
2023/09/11 03:00:47;;;;;;;17.98;12.75;;;22.50;85.50;;;;;;5031336;28;20056;-68
2023/09/11 03:03:51;;;;;;;20.52;12.40;;;22.50;85.40;;;;;;5031833;28;20041;-69
2023/09/11 03:06:55;;;;;;;22.10;12.35;;;22.40;85.40;;;;;;5032258;28;20056;-69
2023/09/11 03:09:59;;;;;;;23.77;13.30;;;22.30;85.60;;;;;;5032051;28;20045;-68
2023/09/11 03:13:03;;;;;;;19.05;11.55;;;22.30;86.50;;;;;;5030951;28;20500;-69
2023/09/11 03:16:11;;;;;;;21.02;11.43;;;22.00;84.60;;;;;;5030861;28;20500;-69
2023/09/11 03:19:16;;;;;;;18.30;11.65;;;22.30;84.90;;;;;;5030913;28;20040;-68
2023/09/11 03:22:20;;;;;;;18.42;10.82;;;22.30;85.10;;;;;;5031109;28;20074;-68
2023/09/11 03:25:26;;;;;;;24.88;12.68;;;22.20;83.90;;;;;;5032010;28;20064;-68
2023/09/11 03:28:31;;;;;;;18.85;11.32;;;22.30;85.10;;;;;;5030700;28;20044;-68
2023/09/11 03:31:35;;;;;;;16.38;11.40;;;22.20;85.60;;;;;;5031588;28;20037;-68
2023/09/11 03:34:39;;;;;;;14.00;10.60;;;22.10;85.50;;;;;;5031517;28;20089;-68
2023/09/11 03:37:43;;;;;;;16.17;11.45;;;22.20;85.10;;;;;;5030416;28;20044;-68
2023/09/11 03:40:47;;;;;;;18.30;10.68;;;22.10;85.20;;;;;;5031478;28;20064;-67
2023/09/11 03:43:55;;;;;;;16.38;11.23;;;22.00;85.50;;;;;;5030575;28;20044;-68
2023/09/11 03:46:59;;;;;;;16.95;11.27;;;21.90;85.50;;;;;;5031396;28;20045;-68
2023/09/11 03:50:04;;;;;;;19.13;10.73;;;21.90;85.90;;;;;;5030503;28;20053;-68
2023/09/11 03:53:11;;;;;;;15.00;10.90;;;22.00;85.20;;;;;;5030627;28;20060;-68
2023/09/11 03:56:15;;;;;;;20.92;11.43;;;21.90;85.70;;;;;;5030134;28;20049;-68
2023/09/11 03:59:21;;;;;;;17.35;11.68;;;21.80;85.80;;;;;;5030452;28;20041;-67
2023/09/11 04:02:25;;;;;;;17.00;11.27;;;21.80;86.10;;;;;;5031273;28;20040;-67
2023/09/11 04:05:29;;;;;;;18.15;11.93;;;21.90;86.20;;;;;;5031292;28;20044;-69
2023/09/11 04:08:33;;;;;;;20.40;11.63;;;22.00;86.10;;;;;;5031322;28;20071;-69
2023/09/11 04:11:37;;;;;;;16.58;11.23;;;21.90;85.70;;;;;;5030984;28;20394;-67
2023/09/11 04:14:41;;;;;;;19.15;10.57;;;21.80;85.80;;;;;;5030018;28;20061;-68
2023/09/11 04:17:45;;;;;;;18.13;11.25;;;21.80;85.60;;;;;;5029928;28;20429;-67
2023/09/11 04:21:03;;;;;;;18.02;10.90;;;21.70;86.00;;;;;;5029985;28;20052;-68
2023/09/11 04:24:12;;;;;;;13.25;10.63;;;21.80;85.60;;;;;;5029738;28;20120;-69
2023/09/11 04:27:16;;;;;;;18.92;11.55;;;21.70;85.60;;;;;;5030100;28;20044;-69
2023/09/11 04:30:22;;;;;;;21.75;10.85;;;21.70;85.70;;;;;;5030083;28;20041;-68
2023/09/11 04:33:27;;;;;;;27.13;11.88;;;21.60;85.80;;;;;;5029468;28;20060;-67
2023/09/11 04:36:32;;;;;;;18.70;10.48;;;21.60;85.30;;;;;;5029846;28;20056;-68
2023/09/11 04:39:36;;;;;;;28.33;12.30;;;21.60;85.70;;;;;;5030826;28;20536;-68
2023/09/11 04:42:41;;;;;;;28.92;11.52;;;21.50;86.20;;;;;;5030754;28;20052;-69
2023/09/11 04:45:48;;;;;;;26.92;11.80;;;21.40;85.90;;;;;;5029856;28;20060;-69
2023/09/11 04:48:52;;;;;;;25.25;11.32;;;21.40;86.80;;;;;;5030008;28;20052;-68
2023/09/11 04:51:56;;;;;;;26.60;11.38;;;21.40;86.50;;;;;;5030808;28;20045;-68
2023/09/11 04:55:00;;;;;;;47.40;14.65;;;21.40;86.40;;;;;;5052862;28;20072;-68
2023/09/11 04:58:04;;;;;;;24.52;12.07;;;21.40;85.80;;;;;;5030478;28;20043;-68
2023/09/11 05:01:10;;;;;;;52.63;13.52;;;21.40;86.40;;;;;;5029895;28;20516;-68
2023/09/11 05:04:15;;;;;;;49.55;12.32;;;21.50;85.90;;;;;;5052844;28;20068;-68
2023/09/11 05:07:19;;;;;;;29.23;12.75;;;21.50;85.90;;;;;;5034258;28;20049;-69
2023/09/11 05:10:23;;;;;;;27.05;12.73;;;21.50;86.10;;;;;;5033499;28;20660;-68
2023/09/11 05:13:27;;;;;;;24.20;11.35;;;21.50;85.40;;;;;;5033133;28;20072;-71
2023/09/11 05:16:31;;;;;;;24.02;10.75;;;21.60;85.20;;;;;;5055884;28;20048;-69
2023/09/11 05:19:35;;;;;;;25.08;11.45;;;21.60;85.60;;;;;;5033181;28;20040;-68
2023/09/11 05:22:40;;;;;;;26.85;11.98;;;22.00;85.70;;;;;;5033646;28;20064;-68
2023/09/11 05:25:44;;;;;;;22.27;11.00;;;22.70;83.50;;;;;;5033359;28;20045;-68
2023/09/11 05:28:48;;;;;;;37.67;12.18;;;23.90;80.80;;;;;;5033046;28;20052;-69
2023/09/11 05:31:52;;;;;;;39.58;11.43;;;24.90;77.90;;;;;;5033738;28;20504;-70
2023/09/11 05:34:56;;;;;;;45.22;11.70;;;26.00;75.10;;;;;;5033676;28;20072;-70
2023/09/11 05:38:00;;;;;;;42.72;11.32;;;26.10;75.50;;;;;;5033874;28;20064;-70
2023/09/11 05:41:04;;;;;;;33.20;11.75;;;26.40;73.50;;;;;;5033797;28;20040;-69
2023/09/11 05:44:08;;;;;;;32.70;11.52;;;26.80;74.50;;;;;;5033363;28;20531;-70
2023/09/11 05:47:12;;;;;;;34.80;12.35;;;26.30;74.10;;;;;;5033310;28;20052;-69
2023/09/11 05:50:19;;;;;;;29.17;12.43;;;26.30;74.70;;;;;;5033308;28;20504;-69
2023/09/11 05:53:22;;;;;;;39.33;12.48;;;26.30;74.80;;;;;;5033371;28;20377;-69
2023/09/11 05:56:26;;;;;;;47.60;12.93;;;26.30;75.20;;;;;;5032864;28;20500;-69
2023/09/11 05:59:30;;;;;;;40.80;12.88;;;26.60;74.90;;;;;;5032847;28;20068;-69
2023/09/11 06:02:34;;;;;;;27.17;11.27;;;27.20;73.90;;;;;;5032677;28;20053;-67
2023/09/11 06:05:41;;;;;;;28.33;12.60;;;27.70;72.80;;;;;;5033013;28;20045;-68
2023/09/11 06:08:45;;;;;;;27.35;12.15;;;28.00;71.30;;;;;;5033174;28;20044;-67
2023/09/11 06:11:50;;;;;;;27.77;12.70;;;28.00;71.30;;;;;;5032753;28;20044;-69
2023/09/11 06:14:54;;;;;;;35.88;14.43;;;28.20;71.60;;;;;;5032470;28;20048;-69
2023/09/11 06:17:59;;;;;;;38.25;14.18;;;28.50;70.80;;;;;;5032730;28;20083;-67
2023/09/11 06:21:03;;;;;;;36.28;13.10;;;28.70;69.50;;;;;;5032984;28;20052;-68
2023/09/11 06:24:07;;;;;;;31.23;12.18;;;28.80;69.40;;;;;;5032638;28;20037;-68
2023/09/11 06:27:13;;;;;;;31.55;11.20;;;28.90;68.00;;;;;;5032408;28;20040;-68
2023/09/11 06:30:17;;;;;;;22.98;9.82;;;28.90;67.40;;;;;;5032677;28;20060;-68
2023/09/11 06:33:21;;;;;;;28.90;11.68;;;29.00;66.90;;;;;;5032220;28;20068;-68
2023/09/11 06:36:25;;;;;;;22.02;11.00;;;29.00;67.80;;;;;;5032231;28;20052;-68
2023/09/11 06:39:28;;;;;;;22.58;11.30;;;29.20;68.00;;;;;;5032101;28;20049;-68
2023/09/11 06:42:34;;;;;;;27.98;10.73;;;29.40;67.60;;;;;;5032461;28;20057;-69
2023/09/11 06:45:38;;;;;;;40.30;11.60;;;29.50;66.80;;;;;;5032364;28;20056;-69
2023/09/11 06:48:42;;;;;;;20.65;11.15;;;29.50;66.90;;;;;;5031984;28;20152;-69
2023/09/11 06:51:49;;;;;;;28.55;11.48;;;29.60;67.00;;;;;;5032120;28;20040;-69
2023/09/11 06:54:54;;;;;;;28.30;10.68;;;29.70;66.80;;;;;;5031947;28;20044;-68
2023/09/11 06:58:00;;;;;;;24.48;10.45;;;29.90;65.60;;;;;;5031821;28;20398;-69
2023/09/11 07:01:04;;;;;;;32.38;11.50;;;30.00;65.30;;;;;;5031689;28;20397;-69
2023/09/11 07:04:10;;;;;;;33.47;10.75;;;30.10;66.10;;;;;;5031885;28;20048;-69
2023/09/11 07:07:15;;;;;;;28.00;10.60;;;30.10;64.90;;;;;;5031940;28;20049;-70
2023/09/11 07:10:19;;;;;;;34.28;11.07;;;30.20;64.90;;;;;;5031445;28;20389;-71
2023/09/11 07:13:23;;;;;;;26.98;10.00;;;30.40;65.00;;;;;;5031583;28;20048;-72
2023/09/11 07:16:27;;;;;;;17.67;10.05;;;30.40;64.40;;;;;;5031553;28;20049;-72
2023/09/11 07:19:31;;;;;;;24.10;9.50;;;30.00;65.00;;;;;;5031360;28;20040;-70
2023/09/11 07:22:35;;;;;;;32.40;10.15;;;30.00;65.50;;;;;;5031616;28;20052;-71
2023/09/11 07:25:39;;;;;;;25.55;9.77;;;30.20;65.00;;;;;;5031862;28;20053;-71
2023/09/11 07:28:57;;;;;;;20.73;9.70;;;30.30;64.70;;;;;;5031221;28;20393;-73
2023/09/11 07:32:02;;;;;;;19.70;9.10;;;30.50;64.70;;;;;;5031436;28;20397;-72
2023/09/11 07:35:07;;;;;;;24.50;9.48;;;30.80;64.20;;;;;;5031671;28;20052;-71
2023/09/11 07:38:12;;;;;;;19.73;9.20;;;31.10;63.70;;;;;;5031541;28;20056;-71
2023/09/11 07:41:17;;;;;;;24.42;9.98;;;31.20;63.50;;;;;;5031322;28;20117;-71
2023/09/11 07:44:21;;;;;;;22.50;9.07;;;31.10;63.40;;;;;;5031204;28;20504;-73
2023/09/11 07:47:25;;;;;;;25.77;9.55;;;31.20;63.00;;;;;;5031147;28;20048;-72
2023/09/11 07:50:29;;;;;;;32.22;11.35;;;31.30;62.80;;;;;;5030611;28;20056;-73
2023/09/11 07:53:33;;;;;;;24.30;10.50;;;31.40;62.50;;;;;;5030991;28;20048;-72
2023/09/11 07:56:38;;;;;;;20.15;9.90;;;31.50;63.50;;;;;;5030944;28;20056;-72
2023/09/11 07:59:42;;;;;;;26.73;9.50;;;31.70;62.40;;;;;;5031610;28;20040;-72
2023/09/11 08:02:48;;;;;;;16.45;9.07;;;31.70;62.20;;;;;;5031234;28;20056;-72
2023/09/11 08:05:53;;;;;;;21.65;9.20;;;31.80;62.10;;;;;;5031245;28;20064;-71
2023/09/11 08:09:03;;;;;;;23.65;9.23;;;31.90;62.30;;;;;;5030781;28;20053;-71
2023/09/11 08:12:07;;;;;;;13.60;8.13;;;32.00;61.60;;;;;;5030705;28;20037;-72
2023/09/11 08:15:11;;;;;;;20.05;7.97;;;32.00;61.90;;;;;;5030744;28;20041;-71
2023/09/11 08:18:15;;;;;;;19.35;9.00;;;32.20;61.80;;;;;;5031178;28;20053;-71
2023/09/11 08:21:20;;;;;;;16.05;8.00;;;32.20;61.40;;;;;;5030662;28;20512;-72
2023/09/11 08:24:23;;;;;;;14.07;7.63;;;32.20;61.50;;;;;;5030785;28;20060;-71
2023/09/11 08:27:27;;;;;;;20.17;8.23;;;32.20;61.30;;;;;;5030877;28;20390;-71
2023/09/11 08:30:31;;;;;;;14.32;7.97;;;32.30;61.00;;;;;;5030604;28;20040;-72
2023/09/11 08:33:35;;;;;;;15.45;8.00;;;32.30;60.70;;;;;;5030356;28;20136;-72
2023/09/11 08:36:39;;;;;;;11.75;8.02;;;32.40;61.00;;;;;;5030459;28;20136;-71
2023/09/11 08:39:44;;;;;;;13.88;7.93;;;32.40;60.90;;;;;;5031436;28;20037;-72
2023/09/11 08:42:48;;;;;;;12.85;8.35;;;32.30;60.30;;;;;;5034724;28;20040;-69
2023/09/11 08:45:55;;;;;;;13.30;7.88;;;32.30;60.30;;;;;;5034443;28;20060;-69
2023/09/11 08:49:02;;;;;;;26.42;8.95;;;32.40;59.80;;;;;;5035032;28;20044;-73
2023/09/11 08:52:09;;;;;;;9.10;6.38;;;32.40;58.60;;;;;;5033910;28;20485;-70
2023/09/11 08:55:16;;;;;;;16.75;7.20;;;32.40;58.60;;;;;;5034514;28;20480;-70
2023/09/11 08:58:24;;;;;;;13.25;5.90;;;32.40;57.90;;;;;;5034343;28;20048;-70
2023/09/11 09:01:28;;;;;;;19.17;6.32;;;32.40;58.00;;;;;;5034847;28;20373;-71
2023/09/11 09:04:34;;;;;;;19.40;7.05;;;32.40;58.00;;;;;;5035073;28;20192;-69
2023/09/11 09:07:39;;;;;;;16.13;6.55;;;32.30;57.10;;;;;;5034126;28;20048;-69
2023/09/11 09:10:43;;;;;;;13.07;6.05;;;32.20;57.30;;;;;;5034418;28;20148;-69
2023/09/11 09:13:47;;;;;;;11.23;5.78;;;32.20;57.10;;;;;;5034003;28;20052;-69
2023/09/11 09:16:54;;;;;;;14.13;7.18;;;32.30;57.60;;;;;;5033511;28;20052;-69
2023/09/11 09:19:58;;;;;;;8.85;5.60;;;32.30;56.60;;;;;;5033958;28;20151;-68
2023/09/11 09:23:02;;;;;;;16.55;6.00;;;32.30;57.00;;;;;;5034406;28;20085;-69
2023/09/11 09:26:07;;;;;;;11.27;6.50;;;32.40;57.10;;;;;;5034018;28;20041;-69
2023/09/11 09:29:16;;;;;;;15.60;5.90;;;32.50;57.50;;;;;;5033734;28;20361;-69
2023/09/11 09:32:19;;;;;;;8.25;5.13;;;32.50;57.30;;;;;;5033331;28;20160;-69
2023/09/11 09:35:30;;;;;;;9.73;5.38;;;32.60;56.60;;;;;;5031745;28;20041;-69
2023/09/11 09:38:35;;;;;;;8.88;5.55;;;32.60;56.80;;;;;;5032780;28;20048;-70
2023/09/11 09:41:39;;;;;;;10.32;5.10;;;32.60;55.90;;;;;;5032132;28;20060;-69
2023/09/11 09:44:55;;;;;;;7.03;4.78;;;32.70;56.20;;;;;;5032030;28;20069;-69
2023/09/11 09:48:11;;;;;;;13.00;5.57;;;32.70;56.10;;;;;;5032576;28;20040;-69
2023/09/11 09:51:15;;;;;;;12.30;6.13;;;32.80;55.90;;;;;;5031955;28;20044;-69
2023/09/11 09:54:20;;;;;;;7.57;4.80;;;32.90;55.60;;;;;;5032340;28;20052;-69
2023/09/11 09:57:26;;;;;;;10.77;5.82;;;32.90;55.70;;;;;;5032191;28;20068;-69
2023/09/11 10:00:30;;;;;;;9.43;5.50;;;33.00;55.70;;;;;;5032180;28;20052;-69
2023/09/11 10:03:45;;;;;;;9.95;5.47;;;33.10;55.80;;;;;;5031883;28;20048;-69
2023/09/11 10:06:56;;;;;;;12.45;5.50;;;33.20;55.50;;;;;;5031976;28;20055;-69
2023/09/11 10:10:23;;;;;;;15.43;6.00;;;33.20;54.50;;;;;;5032066;28;20060;-69
2023/09/11 10:13:33;;;;;;;14.63;6.25;;;33.20;54.00;;;;;;5031593;28;20049;-69
2023/09/11 10:16:36;;;;;;;9.73;5.93;;;33.20;53.70;;;;;;5031636;28;20060;-69
2023/09/11 10:19:41;;;;;;;19.75;6.13;;;33.10;54.10;;;;;;5031184;28;20044;-69
2023/09/11 10:22:45;;;;;;;11.38;5.43;;;33.00;53.20;;;;;;5031811;28;20405;-69
2023/09/11 10:25:56;;;;;;;10.73;5.03;;;33.10;53.80;;;;;;5031753;28;20051;-69
2023/09/11 10:29:09;;;;;;;12.60;6.00;;;33.20;54.40;;;;;;5031516;28;20040;-69
2023/09/11 10:32:22;;;;;;;11.83;6.43;;;33.30;54.40;;;;;;4874932;28;4518574;-69
2023/09/11 10:35:33;;;;;;;11.70;6.95;;;33.40;57.60;;;;;;5032499;28;20053;-69
2023/09/11 10:38:38;;;;;;;12.30;7.32;;;33.40;58.50;;;;;;5033142;28;20052;-69
2023/09/11 10:41:42;;;;;;;15.20;7.13;;;33.50;58.50;;;;;;5032363;28;20394;-69
2023/09/11 10:44:46;;;;;;;9.35;5.93;;;33.50;58.40;;;;;;5032016;28;20052;-69
2023/09/11 10:47:50;;;;;;;16.33;6.90;;;33.50;57.80;;;;;;5031802;28;20040;-70
2023/09/11 10:50:56;;;;;;;14.48;6.90;;;33.50;57.50;;;;;;5031226;28;20119;-70
2023/09/11 10:54:00;;;;;;;15.60;6.80;;;33.50;58.20;;;;;;5030926;28;20049;-71
2023/09/11 10:57:05;;;;;;;16.27;6.68;;;33.50;58.00;;;;;;5031393;28;20056;-69
2023/09/11 11:00:10;;;;;;;26.55;8.05;;;33.40;58.30;;;;;;5031431;28;20041;-71
2023/09/11 11:03:15;;;;;;;16.48;7.13;;;33.40;59.10;;;;;;5031223;28;20044;-69
2023/09/11 11:06:23;;;;;;;12.98;7.30;;;33.40;59.10;;;;;;5032411;28;20052;-69
2023/09/11 11:09:36;;;;;;;11.43;6.45;;;33.30;58.40;;;;;;5032035;28;20045;-68
2023/09/11 11:12:40;;;;;;;9.80;6.47;;;33.30;58.00;;;;;;5031767;28;20056;-68
2023/09/11 11:15:45;;;;;;;10.88;6.70;;;33.20;58.10;;;;;;5031774;28;20056;-69
2023/09/11 11:18:53;;;;;;;10.38;6.53;;;33.20;58.70;;;;;;5032067;28;20370;-69
2023/09/11 11:21:59;;;;;;;17.08;7.65;;;33.20;58.60;;;;;;5031652;28;20057;-69
2023/09/11 11:25:07;;;;;;;15.13;6.53;;;33.20;57.80;;;;;;5031733;28;20044;-69
2023/09/11 11:28:21;;;;;;;14.10;6.80;;;33.20;58.70;;;;;;5031818;28;20048;-69
2023/09/11 11:31:29;;;;;;;10.65;6.15;;;33.10;59.50;;;;;;5031751;28;20048;-69
2023/09/11 11:34:35;;;;;;;8.88;5.85;;;33.00;59.30;;;;;;5031334;28;20048;-69
2023/09/11 11:37:45;;;;;;;18.67;7.53;;;33.00;59.20;;;;;;5031199;28;20052;-69
2023/09/11 11:40:49;;;;;;;11.85;6.35;;;33.00;58.40;;;;;;5031496;28;20063;-69
2023/09/11 11:43:53;;;;;;;10.65;6.30;;;33.00;58.50;;;;;;5031248;28;20052;-69
2023/09/11 11:46:57;;;;;;;26.33;7.45;;;33.00;59.70;;;;;;5031131;28;20045;-69
2023/09/11 11:50:11;;;;;;;13.75;6.47;;;33.50;58.80;;;;;;5031325;28;20060;-69
2023/09/11 11:53:20;;;;;;;19.25;6.50;;;34.90;55.90;;;;;;5031153;28;20048;-69
2023/09/11 11:56:26;;;;;;;13.27;6.38;;;36.20;56.60;;;;;;5031117;28;20056;-68
2023/09/11 11:59:36;;;;;;;14.40;6.60;;;36.90;55.90;;;;;;5031145;28;20500;-69
2023/09/11 12:02:40;;;;;;;10.23;5.70;;;37.20;53.30;;;;;;5030831;28;20076;-68
2023/09/11 12:05:44;;;;;;;9.30;6.07;;;37.40;52.70;;;;;;5031039;28;20056;-69
2023/09/11 12:08:49;;;;;;;15.10;7.03;;;37.50;53.50;;;;;;5031121;28;20060;-69
2023/09/11 12:11:53;;;;;;;11.90;6.43;;;37.40;55.00;;;;;;5030687;28;20052;-70
2023/09/11 12:14:58;;;;;;;15.60;7.00;;;37.20;55.20;;;;;;5030978;28;20048;-68
2023/09/11 12:18:03;;;;;;;12.10;6.63;;;37.10;55.30;;;;;;5031146;28;20049;-68
2023/09/11 12:21:08;;;;;;;12.48;5.95;;;37.10;55.10;;;;;;5030767;28;20091;-68
2023/09/11 12:24:12;;;;;;;10.93;5.80;;;37.10;53.70;;;;;;5030956;28;20048;-68
2023/09/11 12:27:16;;;;;;;14.85;5.93;;;37.00;53.80;;;;;;5030665;28;20188;-68
2023/09/11 12:30:20;;;;;;;14.95;6.35;;;37.10;54.20;;;;;;5030702;28;20120;-68
2023/09/11 12:33:26;;;;;;;16.95;6.30;;;37.10;54.30;;;;;;5030336;28;20056;-68
2023/09/11 12:36:31;;;;;;;11.90;6.00;;;37.10;54.80;;;;;;5030746;28;20057;-68
2023/09/11 12:39:38;;;;;;;14.23;6.20;;;37.00;54.90;;;;;;5030609;28;20057;-68
2023/09/11 12:42:42;;;;;;;24.60;6.13;;;37.00;55.50;;;;;;5030353;28;20044;-69
2023/09/11 12:45:47;;;;;;;16.13;6.28;;;37.10;55.20;;;;;;5030317;28;20048;-69
2023/09/11 12:48:51;;;;;;;14.80;6.25;;;37.10;55.70;;;;;;5030279;28;20049;-68
2023/09/11 12:51:55;;;;;;;11.95;6.35;;;37.10;55.80;;;;;;5029229;28;20049;-68
2023/09/11 12:54:59;;;;;;;18.48;6.10;;;36.70;57.00;;;;;;5027693;28;20041;-69
2023/09/11 12:58:03;;;;;;;34.70;7.13;;;36.20;57.90;;;;;;5029399;28;20516;-69
2023/09/11 13:01:11;;;;;;;15.98;7.13;;;36.40;58.50;;;;;;5029482;28;20045;-69
2023/09/11 13:04:19;;;;;;;13.75;6.65;;;36.50;57.60;;;;;;5030260;28;20056;-69
2023/09/11 13:07:23;;;;;;;20.05;7.07;;;36.40;57.60;;;;;;5030352;28;20397;-68
2023/09/11 13:10:27;;;;;;;12.25;6.22;;;36.10;58.20;;;;;;5030423;28;20397;-68
2023/09/11 13:13:31;;;;;;;16.95;6.57;;;35.50;59.50;;;;;;5030148;28;20048;-68
2023/09/11 13:16:36;;;;;;;13.23;6.47;;;34.80;60.30;;;;;;5030134;28;20056;-68
2023/09/11 13:19:40;;;;;;;17.83;7.30;;;34.60;60.80;;;;;;5030532;28;20488;-69
2023/09/11 13:22:47;;;;;;;22.60;6.85;;;34.60;61.50;;;;;;5030340;28;20492;-68
2023/09/11 13:25:51;;;;;;;17.98;7.10;;;35.20;61.20;;;;;;5031294;28;20044;-68
2023/09/11 13:28:54;;;;;;;17.77;7.10;;;35.40;59.50;;;;;;5033898;28;20044;-68
2023/09/11 13:31:58;;;;;;;19.73;6.68;;;35.40;60.30;;;;;;5033353;28;20048;-69
2023/09/11 13:35:04;;;;;;;17.95;6.95;;;35.60;59.80;;;;;;5032981;28;20061;-69
2023/09/11 13:38:08;;;;;;;16.88;6.80;;;35.60;59.40;;;;;;5033270;28;20067;-68
2023/09/11 13:41:13;;;;;;;14.55;7.43;;;35.20;60.10;;;;;;5033415;28;20040;-69
2023/09/11 13:44:17;;;;;;;19.98;6.43;;;35.50;60.40;;;;;;5033619;28;20049;-69
2023/09/11 13:47:21;;;;;;;22.60;6.93;;;35.70;60.70;;;;;;5032850;28;20052;-71
2023/09/11 13:50:25;;;;;;;25.55;7.78;;;35.70;60.20;;;;;;5033615;28;20048;-68
2023/09/11 13:53:29;;;;;;;14.25;7.13;;;36.00;60.00;;;;;;5033191;28;20040;-68
2023/09/11 13:56:32;;;;;;;12.20;6.90;;;36.00;59.80;;;;;;5033080;28;20512;-68
2023/09/11 13:59:36;;;;;;;21.67;7.20;;;35.90;59.90;;;;;;5033318;28;20049;-75
2023/09/11 14:02:40;;;;;;;54.25;10.18;;;35.20;60.50;;;;;;5033281;28;20052;-75
2023/09/11 14:05:44;;;;;;;10.27;7.05;;;34.60;61.20;;;;;;5033319;28;20052;-75
2023/09/11 14:08:48;;;;;;;22.60;8.05;;;34.20;61.90;;;;;;5032867;28;20048;-75
2023/09/11 14:11:53;;;;;;;11.30;6.32;;;33.90;62.30;;;;;;5033018;28;20052;-75
2023/09/11 14:14:57;;;;;;;16.10;7.40;;;33.60;62.80;;;;;;5032976;28;20048;-75
2023/09/11 14:18:02;;;;;;;10.27;6.55;;;33.40;63.50;;;;;;5032082;28;20048;-75
2023/09/11 14:21:06;;;;;;;17.00;6.85;;;33.20;63.70;;;;;;5032995;28;20040;-76
2023/09/11 14:24:10;;;;;;;16.75;6.95;;;33.10;64.30;;;;;;5020486;28;20397;-75
2023/09/11 14:27:13;;;;;;;22.58;8.25;;;32.90;64.90;;;;;;5032515;28;20041;-75
2023/09/11 14:30:18;;;;;;;12.07;6.90;;;32.80;65.10;;;;;;5032832;28;20508;-75
2023/09/11 14:33:22;;;;;;;19.75;6.72;;;32.70;64.90;;;;;;5032578;28;20056;-75
2023/09/11 14:36:26;;;;;;;16.33;7.70;;;32.70;64.60;;;;;;5031269;28;20056;-75
2023/09/11 14:39:30;;;;;;;10.98;6.63;;;32.60;64.40;;;;;;5032410;28;20068;-75
2023/09/11 14:42:34;;;;;;;12.68;6.95;;;32.50;64.70;;;;;;5032067;28;20389;-75
2023/09/11 14:45:38;;;;;;;280.48;27.02;;;32.40;65.20;;;;;;5032192;28;20042;-75
2023/09/11 14:48:42;;;;;;;28.75;8.07;;;32.40;65.10;;;;;;5037199;28;20796;-75
2023/09/11 14:51:49;;;;;;;20.25;7.00;;;32.30;65.30;;;;;;5032304;28;20052;-75
2023/09/11 14:54:53;;;;;;;17.77;7.93;;;32.20;65.80;;;;;;5032024;28;20124;-76
2023/09/11 14:57:57;;;;;;;12.05;7.40;;;32.20;66.40;;;;;;5031938;28;20056;-76
2023/09/11 15:01:00;;;;;;;20.00;7.47;;;32.10;66.20;;;;;;5032035;28;20048;-75
2023/09/11 15:04:05;;;;;;;16.50;7.35;;;32.10;66.60;;;;;;5032221;28;20052;-75
2023/09/11 15:07:09;;;;;;;12.23;7.10;;;32.00;67.20;;;;;;5032025;28;20048;-75
2023/09/11 15:10:13;;;;;;;19.58;8.45;;;32.00;67.90;;;;;;5032047;28;20109;-75
2023/09/11 15:13:16;;;;;;;16.95;6.90;;;32.00;68.20;;;;;;5030766;28;20041;-75
2023/09/11 15:16:21;;;;;;;10.93;6.65;;;31.90;68.20;;;;;;5032000;28;20056;-75
2023/09/11 15:19:25;;;;;;;17.90;7.68;;;31.90;68.20;;;;;;5031682;28;20053;-74
2023/09/11 15:22:29;;;;;;;15.90;7.25;;;31.90;68.30;;;;;;5031349;28;20037;-70
2023/09/11 15:25:33;;;;;;;15.40;7.10;;;31.80;68.10;;;;;;5031473;28;20049;-70
2023/09/11 15:28:37;;;;;;;10.52;7.30;;;31.70;68.50;;;;;;5031599;28;20048;-69
2023/09/11 15:31:41;;;;;;;24.52;8.27;;;31.60;68.80;;;;;;5031697;28;20040;-70
2023/09/11 15:34:45;;;;;;;11.32;7.47;;;31.60;68.80;;;;;;5031568;28;20060;-68
2023/09/11 15:37:49;;;;;;;16.30;7.57;;;31.60;68.80;;;;;;5031146;28;20500;-68
2023/09/11 15:40:56;;;;;;;12.18;6.97;;;31.60;68.90;;;;;;5031177;28;20080;-69
2023/09/11 15:44:00;;;;;;;25.95;7.18;;;31.50;68.10;;;;;;5031443;28;20424;-69
2023/09/11 15:47:04;;;;;;;12.45;6.30;;;31.50;65.10;;;;;;5030557;28;20049;-68